createdAt,value
2018-10-18T00:01:51.637Z,13.60
2018-10-18T00:04:24.358Z,13.60
2018-10-18T00:06:56.158Z,13.50
2018-10-18T00:09:27.951Z,13.50
2018-10-18T00:12:02.222Z,13.50
2018-10-18T00:14:34.497Z,13.40
2018-10-18T00:17:10.917Z,13.50
2018-10-18T00:19:43.387Z,13.50
2018-10-18T00:22:23.189Z,13.50
2018-10-18T00:24:55.120Z,13.50
2018-10-18T00:27:34.859Z,13.50
2018-10-18T00:30:12.850Z,13.60
2018-10-18T00:32:52.696Z,13.60
2018-10-18T00:35:27.046Z,13.60
2018-10-18T00:38:06.529Z,13.50
2018-10-18T00:40:38.148Z,13.50
2018-10-18T00:43:09.827Z,13.40
2018-10-18T00:45:49.223Z,13.40
2018-10-18T00:48:26.629Z,13.30
2018-10-18T00:51:07.535Z,13.30
2018-10-18T00:53:39.687Z,13.30
2018-10-18T00:56:19.159Z,13.30
2018-10-18T00:58:56.904Z,13.30
2018-10-18T01:01:33.201Z,13.30
2018-10-18T01:04:05.392Z,13.30
2018-10-18T01:06:45.267Z,13.20
2018-10-18T01:09:24.911Z,13.20
2018-10-18T01:11:56.800Z,13.20
2018-10-18T01:14:28.698Z,13.20
2018-10-18T01:17:03.346Z,13.20
2018-10-18T01:19:43.645Z,13.20
2018-10-18T01:22:24.103Z,13.20
2018-10-18T01:25:00.645Z,13.20
2018-10-18T01:27:32.926Z,13.20
2018-10-18T01:30:06.354Z,13.10
2018-10-18T01:32:44.781Z,13.10
2018-10-18T01:35:20.772Z,13.10
2018-10-18T01:37:53.546Z,13.00
2018-10-18T01:40:33.379Z,13.00
2018-10-18T01:43:12.947Z,12.90
2018-10-18T01:45:52.577Z,12.80
2018-10-18T01:48:33.038Z,12.80
2018-10-18T01:51:12.759Z,12.70
2018-10-18T01:53:53.735Z,12.70
2018-10-18T01:56:29.195Z,12.70
2018-10-18T01:59:06.267Z,12.70
2018-10-18T02:01:39.235Z,12.70
2018-10-18T02:04:12.118Z,12.60
2018-10-18T02:06:47.604Z,12.70
2018-10-18T02:09:24.291Z,12.70
2018-10-18T02:11:58.717Z,12.60
2018-10-18T02:14:30.940Z,12.60
2018-10-18T02:17:03.492Z,12.70
2018-10-18T02:19:36.180Z,12.70
2018-10-18T02:22:08.020Z,12.60
2018-10-18T02:24:43.838Z,12.70
2018-10-18T02:27:15.548Z,12.60
2018-10-18T02:29:48.568Z,12.60
2018-10-18T02:32:20.882Z,12.50
2018-10-18T02:34:53.158Z,12.50
2018-10-18T02:37:24.328Z,12.50
2018-10-18T02:40:03.810Z,12.50
2018-10-18T02:42:35.320Z,12.50
2018-10-18T02:45:15.058Z,12.60
2018-10-18T02:47:48.349Z,12.50
2018-10-18T02:50:20.058Z,12.50
2018-10-18T02:52:52.148Z,12.50
2018-10-18T02:55:23.649Z,12.50
2018-10-18T02:57:54.988Z,12.50
2018-10-18T03:00:31.488Z,12.40
2018-10-18T03:03:03.469Z,12.40
2018-10-18T03:05:43.290Z,12.40
2018-10-18T03:08:22.695Z,12.40
2018-10-18T03:11:00.605Z,12.40
2018-10-18T03:13:33.622Z,12.40
2018-10-18T03:16:06.134Z,12.50
2018-10-18T03:18:37.242Z,12.50
2018-10-18T03:21:17.160Z,12.50
2018-10-18T03:23:51.672Z,12.50
2018-10-18T03:26:23.300Z,12.40
2018-10-18T03:28:55.152Z,12.40
2018-10-18T03:31:34.630Z,12.40
2018-10-18T03:34:06.717Z,12.30
2018-10-18T03:36:43.488Z,12.30
2018-10-18T03:39:15.027Z,12.30
2018-10-18T03:41:47.117Z,12.20
2018-10-18T03:44:19.567Z,12.20
2018-10-18T03:46:53.007Z,12.20
2018-10-18T03:49:32.520Z,12.20
2018-10-18T03:52:09.552Z,12.20
2018-10-18T03:54:41.883Z,12.20
2018-10-18T03:57:22.245Z,12.30
2018-10-18T04:00:02.092Z,12.20
2018-10-18T04:02:33.933Z,12.30
2018-10-18T04:05:14.301Z,12.30
2018-10-18T04:07:46.500Z,12.30
2018-10-18T04:10:18.343Z,12.30
2018-10-18T04:12:59.018Z,12.20
2018-10-18T04:15:32.194Z,12.20
2018-10-18T04:18:04.462Z,12.10
2018-10-18T04:20:44.604Z,12.10
2018-10-18T04:23:29.765Z,12.10
2018-10-18T04:26:02.226Z,12.10
2018-10-18T04:28:41.811Z,12.00
2018-10-18T04:31:13.700Z,12.10
2018-10-18T04:33:53.352Z,12.10
2018-10-18T04:36:32.553Z,12.10
2018-10-18T04:39:05.333Z,12.10
2018-10-18T04:41:44.849Z,12.20
2018-10-18T04:44:24.366Z,12.20
2018-10-18T04:47:03.814Z,12.20
2018-10-18T04:49:35.566Z,12.20
2018-10-18T04:52:06.575Z,12.10
2018-10-18T04:54:37.755Z,12.10
2018-10-18T04:57:18.011Z,12.20
2018-10-18T04:59:57.646Z,12.10
2018-10-18T05:02:34.917Z,12.10
2018-10-18T05:05:16.563Z,12.10
2018-10-18T05:07:54.713Z,12.10
2018-10-18T05:10:30.317Z,12.10
2018-10-18T05:13:10.149Z,12.00
2018-10-18T05:15:41.858Z,12.00
2018-10-18T05:18:17.705Z,11.90
2018-10-18T05:20:57.670Z,12.00
2018-10-18T05:23:36.964Z,11.90
2018-10-18T05:26:12.424Z,12.00
2018-10-18T05:28:50.546Z,12.00
2018-10-18T05:31:30.068Z,12.00
2018-10-18T05:34:02.317Z,11.90
2018-10-18T05:36:34.223Z,11.90
2018-10-18T05:39:13.009Z,11.90
2018-10-18T05:41:50.010Z,11.90
2018-10-18T05:44:26.007Z,12.00
2018-10-18T05:47:01.906Z,12.00
2018-10-18T05:49:39.332Z,12.00
2018-10-18T05:52:19.933Z,12.00
2018-10-18T05:54:56.789Z,12.00
2018-10-18T05:57:35.121Z,12.00
2018-10-18T06:00:15.896Z,12.00
2018-10-18T06:02:55.424Z,12.00
2018-10-18T06:05:35.115Z,12.10
2018-10-18T06:08:08.257Z,12.00
2018-10-18T06:10:49.350Z,12.00
2018-10-18T06:13:28.939Z,12.10
2018-10-18T06:16:09.672Z,12.10
2018-10-18T06:18:45.141Z,12.20
2018-10-18T06:21:22.154Z,12.20
2018-10-18T06:23:58.708Z,12.20
2018-10-18T06:26:34.636Z,12.30
2018-10-18T06:29:08.775Z,12.20
2018-10-18T06:31:46.064Z,12.40
2018-10-18T06:34:16.376Z,12.40
2018-10-18T06:36:46.400Z,12.50
2018-10-18T06:39:16.671Z,12.50
2018-10-18T06:41:47.691Z,12.70
2018-10-18T06:44:19.004Z,12.70
2018-10-18T06:46:50.562Z,12.90
2018-10-18T06:49:20.513Z,13.00
2018-10-18T06:51:51.750Z,13.00
2018-10-18T06:54:23.169Z,13.00
2018-10-18T06:57:02.639Z,13.10
2018-10-18T06:59:32.728Z,13.10
2018-10-18T07:02:02.578Z,13.20
2018-10-18T07:04:33.859Z,13.20
2018-10-18T07:07:19.506Z,13.20
2018-10-18T07:09:53.029Z,13.20
2018-10-18T07:12:26.083Z,13.30
2018-10-18T07:14:57.818Z,13.30
2018-10-18T07:17:40.969Z,13.30
2018-10-18T07:20:11.649Z,13.40
2018-10-18T07:22:58.890Z,13.40
2018-10-18T07:25:29.411Z,13.40
2018-10-18T07:28:32.133Z,13.60
2018-10-18T07:31:04.269Z,13.60
2018-10-18T07:33:35.991Z,13.80
2018-10-18T07:36:07.070Z,14.00
2018-10-18T07:38:47.830Z,14.20
2018-10-18T07:41:19.351Z,14.30
2018-10-18T07:43:51.088Z,14.50
2018-10-18T07:46:24.218Z,14.60
2018-10-18T07:48:54.630Z,14.60
2018-10-18T07:51:26.778Z,14.70
2018-10-18T07:53:59.087Z,14.80
2018-10-18T07:56:37.237Z,14.80
2018-10-18T07:59:09.164Z,14.90
2018-10-18T08:01:40.868Z,15.00
2018-10-18T08:04:13.118Z,15.00
2018-10-18T08:06:46.171Z,15.00
2018-10-18T08:09:17.469Z,15.10
2018-10-18T08:11:49.088Z,15.20
2018-10-18T08:14:20.949Z,15.20
2018-10-18T08:16:55.947Z,15.20
2018-10-18T08:19:27.919Z,15.20
2018-10-18T08:21:58.938Z,15.30
2018-10-18T08:24:31.478Z,15.40
2018-10-18T08:27:06.410Z,15.50
2018-10-18T08:29:39.047Z,15.60
2018-10-18T08:32:11.085Z,15.80
2018-10-18T08:34:42.449Z,15.90
2018-10-18T08:37:35.253Z,16.10
2018-10-18T08:40:08.690Z,16.10
2018-10-18T08:42:42.349Z,16.20
2018-10-18T08:45:14.638Z,16.30
2018-10-18T08:48:12.258Z,16.30
2018-10-18T08:50:45.219Z,16.50
2018-10-18T08:53:15.878Z,16.60
2018-10-18T08:55:47.181Z,16.70
2018-10-18T08:58:18.308Z,16.80
2018-10-18T09:00:49.708Z,17.00
2018-10-18T09:03:19.824Z,17.10
2018-10-18T09:05:50.610Z,17.40
2018-10-18T09:08:35.723Z,17.70
2018-10-18T09:11:08.588Z,17.90
2018-10-18T09:13:39.948Z,17.90
2018-10-18T09:16:12.783Z,18.20
2018-10-18T09:21:31.590Z,18.50
2018-10-18T09:24:04.909Z,18.70
2018-10-18T09:26:38.497Z,18.80
2018-10-18T09:29:09.487Z,19.00
2018-10-18T09:31:43.914Z,19.10
2018-10-18T09:34:15.580Z,19.20
2018-10-18T09:37:02.317Z,19.20
2018-10-18T09:39:35.569Z,19.30
2018-10-18T09:42:07.550Z,19.40
2018-10-18T09:44:38.588Z,19.40
2018-10-18T09:47:17.119Z,19.50
2018-10-18T09:49:48.870Z,19.50
2018-10-18T09:52:21.669Z,19.40
2018-10-18T09:54:52.475Z,19.30
2018-10-18T09:57:36.230Z,19.30
2018-10-18T10:00:09.318Z,19.10
2018-10-18T10:02:45.339Z,19.00
2018-10-18T10:05:17.189Z,18.90
2018-10-18T10:08:02.087Z,18.80
2018-10-18T10:10:35.441Z,18.70
2018-10-18T10:13:06.231Z,18.60
2018-10-18T10:15:37.796Z,18.50
2018-10-18T10:18:09.929Z,18.50
2018-10-18T10:20:40.478Z,18.40
2018-10-18T10:23:11.790Z,18.40
2018-10-18T10:25:43.309Z,18.40
2018-10-18T10:28:16.892Z,18.30
2018-10-18T10:30:48.399Z,18.30
2018-10-18T10:33:19.822Z,18.30
2018-10-18T10:35:51.461Z,18.30
2018-10-18T10:38:35.616Z,18.30
2018-10-18T10:41:06.940Z,18.20
2018-10-18T10:43:37.811Z,18.20
2018-10-18T10:46:08.790Z,18.20
2018-10-18T10:48:54.508Z,18.10
2018-10-18T10:51:24.729Z,18.10
2018-10-18T10:53:56.561Z,18.00
2018-10-18T10:56:28.050Z,18.00
2018-10-18T10:59:01.383Z,18.00
2018-10-18T11:01:31.769Z,18.00
2018-10-18T11:04:02.258Z,18.00
2018-10-18T11:06:52.508Z,18.00
2018-10-18T11:09:23.653Z,18.00
2018-10-18T11:11:54.033Z,18.00
2018-10-18T11:14:25.179Z,18.00
2018-10-18T11:16:56.912Z,18.00
2018-10-18T11:19:27.518Z,18.00
2018-10-18T11:21:58.829Z,18.00
2018-10-18T11:24:29.667Z,18.00
2018-10-18T11:27:03.312Z,18.00
2018-10-18T11:29:33.789Z,18.00
2018-10-18T11:32:04.605Z,18.10
2018-10-18T11:34:35.270Z,18.10
2018-10-18T11:37:06.722Z,18.10
2018-10-18T11:39:37.878Z,18.10
2018-10-18T11:42:08.619Z,18.10
2018-10-18T11:44:41.218Z,18.10
2018-10-18T11:47:13.419Z,18.20
2018-10-18T11:49:45.178Z,18.20
2018-10-18T11:52:16.588Z,18.20
2018-10-18T11:54:47.450Z,18.20
2018-10-18T11:57:22.011Z,18.20
2018-10-18T11:59:53.170Z,18.30
2018-10-18T12:02:24.170Z,18.30
2018-10-18T12:04:54.752Z,18.40
2018-10-18T12:07:25.789Z,18.40
2018-10-18T12:09:56.584Z,18.50
2018-10-18T12:12:49.631Z,18.60
2018-10-18T12:15:33.969Z,18.70
2018-10-18T12:18:06.040Z,18.80
2018-10-18T12:20:36.451Z,18.90
2018-10-18T12:23:06.726Z,18.90
2018-10-18T12:25:38.338Z,19.00
2018-10-18T12:28:42.957Z,19.10
2018-10-18T12:31:13.379Z,19.10
2018-10-18T12:34:02.289Z,19.20
2018-10-18T12:36:45.643Z,19.20
2018-10-18T12:39:16.033Z,19.30
2018-10-18T12:41:46.464Z,19.40
2018-10-18T12:44:17.662Z,19.40
2018-10-18T12:46:57.544Z,19.50
2018-10-18T12:49:30.889Z,19.60
2018-10-18T12:52:01.132Z,19.60
2018-10-18T12:54:32.209Z,19.60
2018-10-18T12:57:12.770Z,19.50
2018-10-18T12:59:44.439Z,19.50
2018-10-18T13:02:16.071Z,19.40
2018-10-18T13:04:47.029Z,19.30
2018-10-18T13:07:27.351Z,19.20
2018-10-18T13:09:57.744Z,19.20
2018-10-18T13:12:28.192Z,19.20
2018-10-18T13:15:00.301Z,19.20
2018-10-18T13:17:33.189Z,19.20
2018-10-18T13:20:05.857Z,19.20
2018-10-18T13:22:37.738Z,19.20
2018-10-18T13:25:11.463Z,19.20
2018-10-18T13:28:05.199Z,19.10
2018-10-18T13:30:35.893Z,19.10
2018-10-18T13:33:07.490Z,19.00
2018-10-18T13:35:41.248Z,19.00
2018-10-18T13:38:30.237Z,19.00
2018-10-18T13:41:02.089Z,19.00
2018-10-18T13:43:34.101Z,19.00
2018-10-18T13:46:16.815Z,19.10
2018-10-18T13:48:48.038Z,19.10
2018-10-18T13:51:20.889Z,19.20
2018-10-18T13:53:52.240Z,19.20
2018-10-18T13:56:42.979Z,19.20
2018-10-18T13:59:24.154Z,19.20
2018-10-18T14:01:54.288Z,19.10
2018-10-18T14:04:24.369Z,19.10
2018-10-18T14:06:54.620Z,19.10
2018-10-18T14:09:25.421Z,19.00
2018-10-18T14:11:56.598Z,18.90
2018-10-18T14:14:26.731Z,18.90
2018-10-18T14:16:57.887Z,18.90
2018-10-18T14:19:28.115Z,18.80
2018-10-18T14:22:01.549Z,18.70
2018-10-18T14:24:32.303Z,18.70
2018-10-18T14:27:20.756Z,18.60
2018-10-18T14:29:53.011Z,18.60
2018-10-18T14:32:25.210Z,18.50
2018-10-18T14:35:01.678Z,18.40
2018-10-18T14:37:43.099Z,18.40
2018-10-18T14:40:17.259Z,18.40
2018-10-18T14:42:49.030Z,18.40
2018-10-18T14:45:21.018Z,18.40
2018-10-18T14:47:54.932Z,18.30
2018-10-18T14:50:25.020Z,18.30
2018-10-18T14:52:54.760Z,18.30
2018-10-18T14:55:26.550Z,18.30
2018-10-18T14:57:56.670Z,18.20
2018-10-18T15:00:27.988Z,18.20
2018-10-18T15:02:58.509Z,18.20
2018-10-18T15:05:29.040Z,18.10
2018-10-18T15:07:59.510Z,18.10
2018-10-18T15:10:31.707Z,18.10
2018-10-18T15:13:01.699Z,18.00
2018-10-18T15:15:33.840Z,18.00
2018-10-18T15:18:06.948Z,18.00
2018-10-18T15:20:38.967Z,18.00
2018-10-18T15:23:17.934Z,18.00
2018-10-18T15:25:48.136Z,17.90
2018-10-18T15:28:22.858Z,17.90
2018-10-18T15:30:54.583Z,17.80
2018-10-18T15:33:25.543Z,17.80
2018-10-18T15:36:00.628Z,17.80
2018-10-18T15:38:34.525Z,17.80
2018-10-18T15:41:08.688Z,17.70
2018-10-18T15:43:41.569Z,17.70
2018-10-18T15:46:16.081Z,17.70
2018-10-18T15:48:46.766Z,17.60
2018-10-18T15:51:17.521Z,17.60
2018-10-18T15:53:47.795Z,17.50
2018-10-18T15:56:18.324Z,17.40
2018-10-18T15:58:48.573Z,17.30
2018-10-18T16:01:18.393Z,17.30
2018-10-18T16:03:48.206Z,17.20
2018-10-18T16:06:18.186Z,17.10
2018-10-18T16:08:53.593Z,17.10
2018-10-18T16:11:27.951Z,17.10
2018-10-18T16:14:04.264Z,17.00
2018-10-18T16:16:41.147Z,16.90
2018-10-18T16:19:15.664Z,16.90
2018-10-18T16:21:48.121Z,16.90
2018-10-18T16:24:20.718Z,16.80
2018-10-18T16:27:04.245Z,16.80
2018-10-18T16:29:36.793Z,16.70
2018-10-18T16:32:09.883Z,16.70
2018-10-18T16:34:44.054Z,16.60
2018-10-18T16:37:32.985Z,16.60
2018-10-18T16:40:08.501Z,16.60
2018-10-18T16:42:40.865Z,16.50
2018-10-18T16:45:15.923Z,16.50
2018-10-18T16:48:02.138Z,16.40
2018-10-18T16:50:34.343Z,16.40
2018-10-18T16:53:05.447Z,16.30
2018-10-18T16:55:36.384Z,16.30
2018-10-18T16:58:13.041Z,16.20
2018-10-18T17:00:59.751Z,16.20
2018-10-18T17:03:31.691Z,16.10
2018-10-18T17:06:01.796Z,16.10
2018-10-18T17:08:33.484Z,16.00
2018-10-18T17:11:12.523Z,16.00
2018-10-18T17:13:51.656Z,16.00
2018-10-18T17:16:30.863Z,15.90
2018-10-18T17:19:10.508Z,15.90
2018-10-18T17:21:42.194Z,15.90
2018-10-18T17:24:21.343Z,15.90
2018-10-18T17:26:53.478Z,15.80
2018-10-18T17:29:32.552Z,15.80
2018-10-18T17:32:12.079Z,15.80
2018-10-18T17:34:51.453Z,15.70
2018-10-18T17:37:29.361Z,15.70
2018-10-18T17:40:05.012Z,15.60
2018-10-18T17:42:36.132Z,15.60
2018-10-18T17:45:15.135Z,15.50
2018-10-18T17:47:54.453Z,15.50
2018-10-18T17:50:26.185Z,15.40
2018-10-18T17:53:05.229Z,15.40
2018-10-18T17:55:41.352Z,15.30
2018-10-18T17:58:18.848Z,15.30
2018-10-18T18:00:51.784Z,15.30
2018-10-18T18:03:21.543Z,15.30
2018-10-18T18:05:53.165Z,15.30
2018-10-18T18:08:25.705Z,15.20
2018-10-18T18:10:57.657Z,15.20
2018-10-18T18:13:29.464Z,15.10
2018-10-18T18:16:01.509Z,15.10
2018-10-18T18:18:32.584Z,15.10
2018-10-18T18:21:12.425Z,15.10
2018-10-18T18:23:42.912Z,15.10
2018-10-18T18:26:13.725Z,15.10
2018-10-18T18:29:01.505Z,15.10
2018-10-18T18:31:33.157Z,15.00
2018-10-18T18:34:03.995Z,14.90
2018-10-18T18:36:35.825Z,14.80
2018-10-18T18:39:08.168Z,14.70
2018-10-18T18:41:39.906Z,14.70
2018-10-18T18:44:09.915Z,14.60
2018-10-18T18:47:02.145Z,14.60
2018-10-18T18:49:46.555Z,14.60
2018-10-18T18:52:32.140Z,14.50
2018-10-18T18:55:18.499Z,14.50
2018-10-18T18:57:54.485Z,14.50
2018-10-18T19:00:40.936Z,14.60
2018-10-18T19:03:25.055Z,14.50
2018-10-18T19:06:03.029Z,14.50
2018-10-18T19:08:39.944Z,14.50
2018-10-18T19:11:19.985Z,14.50
2018-10-18T19:13:59.746Z,14.50
2018-10-18T19:16:38.006Z,14.50
2018-10-18T19:19:16.214Z,14.50
2018-10-18T19:21:54.814Z,14.50
2018-10-18T19:24:41.564Z,14.40
2018-10-18T19:27:14.534Z,14.40
2018-10-18T19:29:46.415Z,14.40
2018-10-18T19:32:22.003Z,14.30
2018-10-18T19:34:59.399Z,14.30
2018-10-18T19:37:50.953Z,14.30
2018-10-18T19:40:28.305Z,14.30
2018-10-18T19:43:09.173Z,14.30
2018-10-18T19:45:45.501Z,14.30
2018-10-18T19:48:17.384Z,14.30
2018-10-18T19:50:51.779Z,14.30
2018-10-18T19:53:27.588Z,14.30
2018-10-18T19:56:01.958Z,14.20
2018-10-18T19:58:33.141Z,14.20
2018-10-18T20:01:11.883Z,14.20
2018-10-18T20:03:47.295Z,14.20
2018-10-18T20:06:26.864Z,14.20
2018-10-18T20:09:11.005Z,14.10
2018-10-18T20:14:50.324Z,14.20
2018-10-18T20:17:20.755Z,14.10
2018-10-18T20:19:59.052Z,14.10
2018-10-18T20:22:28.774Z,14.10
2018-10-18T20:24:58.813Z,14.10
2018-10-18T20:27:29.546Z,14.10
2018-10-18T20:30:17.245Z,14.10
2018-10-18T20:32:48.426Z,14.00
2018-10-18T20:35:18.604Z,14.00
2018-10-18T20:37:48.964Z,14.00
2018-10-18T20:40:21.184Z,14.00
2018-10-18T20:42:58.104Z,14.00
2018-10-18T20:45:42.954Z,14.00
2018-10-18T20:48:15.135Z,14.00
2018-10-18T20:50:54.541Z,14.00
2018-10-18T20:53:28.176Z,14.10
2018-10-18T20:55:59.534Z,14.00
2018-10-18T20:58:41.048Z,14.00
2018-10-18T21:01:12.325Z,14.00
2018-10-18T21:03:42.766Z,14.00
2018-10-18T21:06:12.906Z,13.90
2018-10-18T21:08:44.344Z,13.90
2018-10-18T21:11:15.435Z,13.80
2018-10-18T21:13:46.665Z,13.80
2018-10-18T21:16:18.385Z,13.80
2018-10-18T21:18:49.887Z,13.80
2018-10-18T21:21:21.234Z,13.80
2018-10-18T21:23:51.408Z,13.80
2018-10-18T21:26:22.704Z,13.80
2018-10-18T21:28:54.468Z,13.80
2018-10-18T21:31:25.824Z,13.80
2018-10-18T21:33:57.326Z,13.80
2018-10-18T21:36:28.635Z,13.80
2018-10-18T21:38:59.921Z,13.80
2018-10-18T21:41:31.204Z,13.80
2018-10-18T21:44:03.438Z,13.70
2018-10-18T21:46:35.125Z,13.70
2018-10-18T21:49:05.314Z,13.60
2018-10-18T21:51:36.465Z,13.60
2018-10-18T21:54:08.734Z,13.70
2018-10-18T21:56:40.204Z,13.60
2018-10-18T21:59:10.645Z,13.60
2018-10-18T22:01:41.644Z,13.60
2018-10-18T22:04:13.203Z,13.50
2018-10-18T22:06:44.534Z,13.50
2018-10-18T22:09:15.977Z,13.50
2018-10-18T22:11:47.305Z,13.50
2018-10-18T22:14:18.422Z,13.50
2018-10-18T22:16:48.273Z,13.50
2018-10-18T22:19:19.284Z,13.50
2018-10-18T22:21:50.495Z,13.40
2018-10-18T22:24:21.975Z,13.40
2018-10-18T22:26:53.423Z,13.40
2018-10-18T22:29:24.654Z,13.50
2018-10-18T22:31:55.693Z,13.40
2018-10-18T22:34:26.877Z,13.40
2018-10-18T22:36:58.616Z,13.40
2018-10-18T22:39:29.866Z,13.30
2018-10-18T22:42:01.155Z,13.30
2018-10-18T22:44:33.195Z,13.30
2018-10-18T22:47:04.889Z,13.30
2018-10-18T22:49:36.545Z,13.30
2018-10-18T22:52:06.525Z,13.20
2018-10-18T22:54:38.683Z,13.10
2018-10-18T22:57:10.222Z,13.10
2018-10-18T22:59:42.127Z,13.10
2018-10-18T23:02:13.574Z,13.10
2018-10-18T23:04:44.646Z,13.10
2018-10-18T23:07:16.234Z,13.10
2018-10-18T23:09:47.685Z,13.20
2018-10-18T23:12:18.874Z,13.20
2018-10-18T23:14:50.744Z,13.20
2018-10-18T23:17:22.745Z,13.20
2018-10-18T23:19:54.347Z,13.20
2018-10-18T23:22:25.684Z,13.20
2018-10-18T23:24:57.634Z,13.10
2018-10-18T23:27:32.144Z,13.10
2018-10-18T23:30:03.734Z,13.10
2018-10-18T23:32:34.895Z,13.10
2018-10-18T23:35:06.816Z,13.10
2018-10-18T23:37:38.434Z,13.00
2018-10-18T23:40:10.133Z,13.00
2018-10-18T23:42:40.274Z,13.00
2018-10-18T23:45:10.884Z,13.00
2018-10-18T23:47:42.007Z,13.00
2018-10-18T23:50:13.544Z,12.90
2018-10-18T23:52:44.604Z,12.90
2018-10-18T23:55:14.773Z,12.90
2018-10-18T23:57:46.375Z,12.80
